Crawley, United Kingdom
Current Conditions -  °F | °C
As of 9:20 PM on Monday 22 Dec 2014 (Local Time) from EGKK Reporting Station
Scattered Clouds Scattered Clouds  
Wind Chill: 52°   Ceiling: Unl
Heat Index: 52°   Visibility: 6mi
Dew Point: 45°   Wind: 13mph
Humidity: 76%   Direction: 230°SW
Pressure: 30.12"   Gusts: NA
Location:  51.11°N, 0.18°W
Report Text: EGKK 222120Z 23011KT 9999 SCT025 11/07 Q1020
Loading
Personal Weather Stations






























Interactive Weather Map New forecast layout! Learn more

10-Day Weather Forecast

Advertisements
Track Severe Weather on mobile